Airfield :
LOGIN :

Register | Disclaimer

   EN    FR    IT 

 










Legend :    VFR   Marginal VFR   IFR   Intensive IFR   Very Intensive IFR
Visi :
Ceiling :
>= 8 km
>= 3000ft
5 to 8 km
1000 to 3000 ft
1500m to 5 km
500 to 1000 ft
800 to 1500m
200 to 500 ft
< 800m
< 200 ft
Symbols :   Thunderstorms  Fog  Heavy snow  Heavy precipitations  Wind > 20 kt
SIGMETs :     Misc.  Thunderstorms  Icing  Turbulence  Mountain Waves  Volcanic Ashes






- Airport Elevation : 309 ft
- IATA code : FNI


LFTW - Nîmes Garons

CURRENT METAR :
  • 051900Z AUTO 01003KT CAVOK 07/04 Q1023 NOSIG

EXPIRED METARs :
  • 051830Z AUTO 03003KT CAVOK 08/04 Q1023 NOSIG
  • 051800Z AUTO 02003KT CAVOK 08/04 Q1023 NOSIG
  • 051730Z AUTO 04003KT 010V070 CAVOK 09/04 Q1022 NOSIG
  • 051700Z AUTO 05003KT CAVOK 08/04 Q1022 NOSIG
  • 051630Z AUTO 10003KT CAVOK 09/04 Q1022 NOSIG
  • 051600Z AUTO 06005KT CAVOK 09/04 Q1022 NOSIG

TAF TAF LFTW
Valid from the 05 at 15:00 until the 06 at 15:00 UTC


051400Z 0515/0615 06005KT CAVOK



MET'MAP, your aeronautical weather chart ! - Copyright ORBIFLY December 2007 - Disclaimer

ORBIFLY MET'MAP TEAM :

Programming & Development : Alexandra Zaïnal
Concept & original design : Baudouin d'Aumeries
Assistance for programming : Marc-Olivier Méhu
Technical & hardware support : Manuel Goepfert

Contact : metmap@orbifly.com




SOURCES & CREDITS :

   NOAA